sensor_id;sensor_type;location;lat;lon;timestamp;pressure;altitude;pressure_sealevel;temperature;humidity
6349;BME280;3207;42.648;23.406;2023-07-30T00:00:29;99564.88;;;26.77;76.78
6349;BME280;3207;42.648;23.406;2023-07-30T00:02:56;99564.50;;;26.73;76.71
6349;BME280;3207;42.648;23.406;2023-07-30T00:05:23;99562.25;;;26.58;77.35
6349;BME280;3207;42.648;23.406;2023-07-30T00:07:50;99564.88;;;26.47;77.74
6349;BME280;3207;42.648;23.406;2023-07-30T00:10:17;99561.91;;;26.37;78.40
6349;BME280;3207;42.648;23.406;2023-07-30T00:12:45;99552.34;;;26.22;78.69
6349;BME280;3207;42.648;23.406;2023-07-30T00:15:12;99567.69;;;26.15;79.16
6349;BME280;3207;42.648;23.406;2023-07-30T00:17:39;99565.66;;;26.11;79.30
6349;BME280;3207;42.648;23.406;2023-07-30T00:20:07;99561.13;;;26.11;79.55
6349;BME280;3207;42.648;23.406;2023-07-30T00:22:34;99561.94;;;26.12;79.85
6349;BME280;3207;42.648;23.406;2023-07-30T00:25:01;99563.19;;;26.09;79.26
6349;BME280;3207;42.648;23.406;2023-07-30T00:27:28;99559.91;;;26.07;79.75
6349;BME280;3207;42.648;23.406;2023-07-30T00:29:57;99564.97;;;25.97;79.32
6349;BME280;3207;42.648;23.406;2023-07-30T00:32:23;99561.13;;;25.93;79.40
6349;BME280;3207;42.648;23.406;2023-07-30T00:34:50;99561.75;;;25.88;79.53
6349;BME280;3207;42.648;23.406;2023-07-30T00:37:17;99556.63;;;25.87;79.37
6349;BME280;3207;42.648;23.406;2023-07-30T00:39:44;99549.41;;;25.87;79.08
6349;BME280;3207;42.648;23.406;2023-07-30T00:42:11;99550.13;;;25.76;78.94
6349;BME280;3207;42.648;23.406;2023-07-30T00:44:38;99562.13;;;25.74;79.68
6349;BME280;3207;42.648;23.406;2023-07-30T00:47:06;99557.66;;;25.68;79.87
6349;BME280;3207;42.648;23.406;2023-07-30T00:49:33;99557.03;;;25.66;80.17
6349;BME280;3207;42.648;23.406;2023-07-30T00:52:01;99548.44;;;25.64;80.47
6349;BME280;3207;42.648;23.406;2023-07-30T00:54:28;99562.44;;;25.59;80.33
6349;BME280;3207;42.648;23.406;2023-07-30T00:56:54;99562.88;;;25.56;80.75
6349;BME280;3207;42.648;23.406;2023-07-30T00:59:21;99562.03;;;25.56;81.62
6349;BME280;3207;42.648;23.406;2023-07-30T01:01:51;99572.00;;;25.48;81.35
6349;BME280;3207;42.648;23.406;2023-07-30T01:04:19;99577.56;;;25.47;82.29
6349;BME280;3207;42.648;23.406;2023-07-30T01:06:46;99576.13;;;25.44;82.92
6349;BME280;3207;42.648;23.406;2023-07-30T01:09:13;99574.28;;;25.45;81.99
6349;BME280;3207;42.648;23.406;2023-07-30T01:11:41;99580.25;;;25.47;81.27
6349;BME280;3207;42.648;23.406;2023-07-30T01:14:10;99582.28;;;25.51;81.14
6349;BME280;3207;42.648;23.406;2023-07-30T01:16:37;99584.50;;;25.54;81.71
6349;BME280;3207;42.648;23.406;2023-07-30T01:19:05;99580.03;;;25.48;81.81
6349;BME280;3207;42.648;23.406;2023-07-30T01:21:33;99588.88;;;25.49;81.89
6349;BME280;3207;42.648;23.406;2023-07-30T01:24:06;99593.84;;;25.45;81.99
6349;BME280;3207;42.648;23.406;2023-07-30T01:26:37;99590.56;;;25.43;81.99
6349;BME280;3207;42.648;23.406;2023-07-30T01:29:10;99585.66;;;25.40;82.46
6349;BME280;3207;42.648;23.406;2023-07-30T01:31:40;99582.38;;;25.38;82.46
6349;BME280;3207;42.648;23.406;2023-07-30T01:34:09;99594.13;;;25.37;82.27
6349;BME280;3207;42.648;23.406;2023-07-30T01:36:39;99595.56;;;25.33;82.56
6349;BME280;3207;42.648;23.406;2023-07-30T01:39:08;99583.69;;;25.29;83.07
6349;BME280;3207;42.648;23.406;2023-07-30T01:41:36;99586.50;;;25.34;82.63
6349;BME280;3207;42.648;23.406;2023-07-30T01:44:03;99587.56;;;25.33;83.44
6349;BME280;3207;42.648;23.406;2023-07-30T01:46:30;99585.31;;;25.30;84.40
6349;BME280;3207;42.648;23.406;2023-07-30T01:48:56;99583.69;;;25.29;84.33
6349;BME280;3207;42.648;23.406;2023-07-30T01:51:23;99583.69;;;25.29;84.35
6349;BME280;3207;42.648;23.406;2023-07-30T01:53:51;99579.16;;;25.30;83.96
6349;BME280;3207;42.648;23.406;2023-07-30T01:56:18;99591.72;;;25.29;83.91
6349;BME280;3207;42.648;23.406;2023-07-30T01:58:45;99586.97;;;25.31;83.27
6349;BME280;3207;42.648;23.406;2023-07-30T02:01:11;99591.25;;;25.32;82.81
6349;BME280;3207;42.648;23.406;2023-07-30T02:03:38;99587.78;;;25.32;83.19
6349;BME280;3207;42.648;23.406;2023-07-30T02:06:05;99586.97;;;25.31;83.79
6349;BME280;3207;42.648;23.406;2023-07-30T02:08:32;99583.69;;;25.29;84.70
6349;BME280;3207;42.648;23.406;2023-07-30T02:11:00;99596.84;;;25.31;84.24
6349;BME280;3207;42.648;23.406;2023-07-30T02:13:27;99593.94;;;25.32;83.44
6349;BME280;3207;42.648;23.406;2023-07-30T02:15:54;99597.22;;;25.34;83.12
6349;BME280;3207;42.648;23.406;2023-07-30T02:18:20;99588.16;;;25.35;82.94
6349;BME280;3207;42.648;23.406;2023-07-30T02:20:53;99591.25;;;25.32;83.12
6349;BME280;3207;42.648;23.406;2023-07-30T02:23:20;99591.25;;;25.32;83.18
6349;BME280;3207;42.648;23.406;2023-07-30T02:25:47;99590.22;;;25.33;84.27
6349;BME280;3207;42.648;23.406;2023-07-30T02:28:15;99570.47;;;25.34;83.74
6349;BME280;3207;42.648;23.406;2023-07-30T02:30:42;99574.78;;;25.35;84.18
6349;BME280;3207;42.648;23.406;2023-07-30T02:33:09;99570.03;;;25.37;83.38
6349;BME280;3207;42.648;23.406;2023-07-30T02:35:35;99577.44;;;25.35;82.72
6349;BME280;3207;42.648;23.406;2023-07-30T02:38:02;99573.75;;;25.36;82.79
6349;BME280;3207;42.648;23.406;2023-07-30T02:40:29;99577.25;;;25.37;82.65
6349;BME280;3207;42.648;23.406;2023-07-30T02:42:56;99575.38;;;25.37;83.21
6349;BME280;3207;42.648;23.406;2023-07-30T02:45:24;99575.38;;;25.37;83.45
6349;BME280;3207;42.648;23.406;2023-07-30T02:47:51;99577.84;;;25.39;82.90
6349;BME280;3207;42.648;23.406;2023-07-30T02:50:18;99581.34;;;25.39;83.40
6349;BME280;3207;42.648;23.406;2023-07-30T02:52:44;99567.56;;;25.36;83.08
6349;BME280;3207;42.648;23.406;2023-07-30T02:55:11;99582.78;;;25.42;82.92
6349;BME280;3207;42.648;23.406;2023-07-30T02:57:38;99583.19;;;25.39;83.59
6349;BME280;3207;42.648;23.406;2023-07-30T03:00:06;99581.88;;;25.23;83.38
6349;BME280;3207;42.648;23.406;2023-07-30T03:02:35;99582.53;;;25.19;83.39
6349;BME280;3207;42.648;23.406;2023-07-30T03:05:02;99582.97;;;25.15;84.14
6349;BME280;3207;42.648;23.406;2023-07-30T03:07:29;99574.78;;;25.10;84.55
6349;BME280;3207;42.648;23.406;2023-07-30T03:09:55;99570.88;;;25.06;83.84
6349;BME280;3207;42.648;23.406;2023-07-30T03:12:22;99554.50;;;24.90;84.59
6349;BME280;3207;42.648;23.406;2023-07-30T03:14:49;99569.91;;;24.94;84.47
6349;BME280;3207;42.648;23.406;2023-07-30T03:17:16;99569.13;;;24.80;84.88
6349;BME280;3207;42.648;23.406;2023-07-30T03:19:44;99566.91;;;24.77;85.13
6349;BME280;3207;42.648;23.406;2023-07-30T03:22:11;99556.69;;;24.68;85.16
6349;BME280;3207;42.648;23.406;2023-07-30T03:24:37;99552.38;;;24.60;85.42
6349;BME280;3207;42.648;23.406;2023-07-30T03:27:05;99555.66;;;24.62;85.96
6349;BME280;3207;42.648;23.406;2023-07-30T03:29:32;99555.66;;;24.62;85.99
6349;BME280;3207;42.648;23.406;2023-07-30T03:31:59;99550.56;;;24.54;86.57
6349;BME280;3207;42.648;23.406;2023-07-30T03:34:25;99558.59;;;24.48;86.23
6349;BME280;3207;42.648;23.406;2023-07-30T03:36:53;99559.00;;;24.51;86.80
6349;BME280;3207;42.648;23.406;2023-07-30T03:39:20;99564.34;;;24.51;87.09
6349;BME280;3207;42.648;23.406;2023-07-30T03:41:47;99555.31;;;24.52;86.52
6349;BME280;3207;42.648;23.406;2023-07-30T03:44:14;99562.03;;;24.61;87.02
6349;BME280;3207;42.648;23.406;2023-07-30T03:46:41;99555.66;;;24.62;86.35
6349;BME280;3207;42.648;23.406;2023-07-30T03:49:07;99551.59;;;24.53;85.88
6349;BME280;3207;42.648;23.406;2023-07-30T03:51:34;99547.34;;;24.46;86.18
6349;BME280;3207;42.648;23.406;2023-07-30T03:54:03;99530.31;;;24.33;86.46
6349;BME280;3207;42.648;23.406;2023-07-30T03:56:30;99524.94;;;24.40;86.55
6349;BME280;3207;42.648;23.406;2023-07-30T03:58:56;99525.00;;;24.27;86.76
6349;BME280;3207;42.648;23.406;2023-07-30T04:01:23;99539.16;;;24.21;87.28
6349;BME280;3207;42.648;23.406;2023-07-30T04:03:50;99558.28;;;24.31;87.43
6349;BME280;3207;42.648;23.406;2023-07-30T04:06:17;99568.75;;;24.32;87.64
6349;BME280;3207;42.648;23.406;2023-07-30T04:08:44;99568.16;;;24.30;87.37
6349;BME280;3207;42.648;23.406;2023-07-30T04:11:12;99562.19;;;24.35;86.69
6349;BME280;3207;42.648;23.406;2023-07-30T04:13:38;99582.47;;;24.49;86.40
6349;BME280;3207;42.648;23.406;2023-07-30T04:16:06;99592.31;;;24.55;85.96
6349;BME280;3207;42.648;23.406;2023-07-30T04:18:33;99596.38;;;24.64;85.54
6349;BME280;3207;42.648;23.406;2023-07-30T04:20:59;99596.34;;;24.71;85.57
6349;BME280;3207;42.648;23.406;2023-07-30T04:23:26;99600.66;;;24.78;85.30
6349;BME280;3207;42.648;23.406;2023-07-30T04:25:53;99596.06;;;24.86;84.32
6349;BME280;3207;42.648;23.406;2023-07-30T04:28:21;99618.25;;;24.99;84.09
6349;BME280;3207;42.648;23.406;2023-07-30T04:30:48;99627.47;;;25.10;83.27
6349;BME280;3207;42.648;23.406;2023-07-30T04:33:15;99636.88;;;25.19;81.87
6349;BME280;3207;42.648;23.406;2023-07-30T04:35:42;99639.53;;;25.19;81.50
6349;BME280;3207;42.648;23.406;2023-07-30T04:38:09;99652.31;;;25.17;81.46
6349;BME280;3207;42.648;23.406;2023-07-30T04:40:36;99654.59;;;25.13;80.61
6349;BME280;3207;42.648;23.406;2023-07-30T04:43:02;99671.31;;;25.02;79.97
6349;BME280;3207;42.648;23.406;2023-07-30T04:45:30;99634.84;;;24.63;80.95
6349;BME280;3207;42.648;23.406;2023-07-30T04:47:57;99688.06;;;24.71;82.15
6349;BME280;3207;42.648;23.406;2023-07-30T04:50:24;99691.00;;;24.57;83.58
6349;BME280;3207;42.648;23.406;2023-07-30T04:52:51;99672.94;;;24.46;83.79
6349;BME280;3207;42.648;23.406;2023-07-30T04:55:18;99657.97;;;24.31;84.61
6349;BME280;3207;42.648;23.406;2023-07-30T04:57:45;99643.97;;;24.16;85.24
6349;BME280;3207;42.648;23.406;2023-07-30T05:00:12;99641.13;;;24.04;86.50
6349;BME280;3207;42.648;23.406;2023-07-30T05:02:40;99658.19;;;24.03;88.33
6349;BME280;3207;42.648;23.406;2023-07-30T05:05:07;99672.56;;;24.02;88.37
6349;BME280;3207;42.648;23.406;2023-07-30T05:07:34;99665.16;;;23.98;87.49
6349;BME280;3207;42.648;23.406;2023-07-30T05:10:01;99659.63;;;23.99;87.90
6349;BME280;3207;42.648;23.406;2023-07-30T05:12:31;99654.06;;;24.01;88.68
6349;BME280;3207;42.648;23.406;2023-07-30T05:14:58;99654.47;;;23.98;89.42
6349;BME280;3207;42.648;23.406;2023-07-30T05:17:24;99654.69;;;23.96;90.23
6349;BME280;3207;42.648;23.406;2023-07-30T05:19:53;99668.88;;;24.03;90.15
6349;BME280;3207;42.648;23.406;2023-07-30T05:22:19;99674.81;;;24.05;88.16
6349;BME280;3207;42.648;23.406;2023-07-30T05:24:46;99679.13;;;24.06;88.60
6349;BME280;3207;42.648;23.406;2023-07-30T05:27:13;99668.03;;;23.96;88.98
6349;BME280;3207;42.648;23.406;2023-07-30T05:29:40;99670.50;;;23.85;89.10
6349;BME280;3207;42.648;23.406;2023-07-30T05:32:07;99693.09;;;23.69;89.06
6349;BME280;3207;42.648;23.406;2023-07-30T05:34:34;99696.16;;;23.66;89.31
6349;BME280;3207;42.648;23.406;2023-07-30T05:37:05;99718.53;;;23.65;89.23
6349;BME280;3207;42.648;23.406;2023-07-30T05:39:32;99731.25;;;23.63;89.35
6349;BME280;3207;42.648;23.406;2023-07-30T05:41:59;99734.97;;;23.62;88.95
6349;BME280;3207;42.648;23.406;2023-07-30T05:44:26;99748.91;;;23.51;89.16
6349;BME280;3207;42.648;23.406;2023-07-30T05:46:53;99742.34;;;23.53;89.75
6349;BME280;3207;42.648;23.406;2023-07-30T05:49:19;99743.78;;;23.56;89.86
6349;BME280;3207;42.648;23.406;2023-07-30T05:51:46;99743.16;;;23.54;89.46
6349;BME280;3207;42.648;23.406;2023-07-30T05:54:14;99745.22;;;23.52;89.83
6349;BME280;3207;42.648;23.406;2023-07-30T05:56:41;99744.19;;;23.53;90.12
6349;BME280;3207;42.648;23.406;2023-07-30T05:59:08;99740.91;;;23.57;90.62
6349;BME280;3207;42.648;23.406;2023-07-30T06:01:35;99731.47;;;23.55;90.94
6349;BME280;3207;42.648;23.406;2023-07-30T06:04:01;99732.50;;;23.60;90.81
6349;BME280;3207;42.648;23.406;2023-07-30T06:06:28;99737.03;;;23.66;90.17
6349;BME280;3207;42.648;23.406;2023-07-30T06:08:56;99738.28;;;23.70;88.84
6349;BME280;3207;42.648;23.406;2023-07-30T06:11:24;99746.28;;;23.77;88.46
6349;BME280;3207;42.648;23.406;2023-07-30T06:13:51;99746.91;;;23.73;88.76
6349;BME280;3207;42.648;23.406;2023-07-30T06:16:18;99751.81;;;23.69;88.97
6349;BME280;3207;42.648;23.406;2023-07-30T06:18:46;99752.22;;;23.66;88.90
6349;BME280;3207;42.648;23.406;2023-07-30T06:21:13;99753.88;;;23.67;89.71
6349;BME280;3207;42.648;23.406;2023-07-30T06:23:40;99752.22;;;23.66;90.07
6349;BME280;3207;42.648;23.406;2023-07-30T06:26:07;99744.84;;;23.68;90.43
6349;BME280;3207;42.648;23.406;2023-07-30T06:28:35;99742.16;;;23.68;90.59
6349;BME280;3207;42.648;23.406;2023-07-30T06:31:02;99733.34;;;23.61;91.08
6349;BME280;3207;42.648;23.406;2023-07-30T06:33:29;99736.59;;;23.63;90.89
6349;BME280;3207;42.648;23.406;2023-07-30T06:35:56;99730.84;;;23.53;90.98
6349;BME280;3207;42.648;23.406;2023-07-30T06:38:22;99730.44;;;23.56;91.18
6349;BME280;3207;42.648;23.406;2023-07-30T06:40:49;99736.59;;;23.63;91.23
6349;BME280;3207;42.648;23.406;2023-07-30T06:43:16;99740.72;;;23.65;91.22
6349;BME280;3207;42.648;23.406;2023-07-30T06:45:44;99728.81;;;23.68;91.35
6349;BME280;3207;42.648;23.406;2023-07-30T06:48:11;99722.22;;;23.64;91.01
6349;BME280;3207;42.648;23.406;2023-07-30T06:50:37;99716.09;;;23.70;90.87
6349;BME280;3207;42.648;23.406;2023-07-30T06:53:04;99701.53;;;23.73;91.09
6349;BME280;3207;42.648;23.406;2023-07-30T06:55:31;99694.72;;;23.63;91.04
6349;BME280;3207;42.648;23.406;2023-07-30T06:57:58;99686.28;;;23.53;91.75
6349;BME280;3207;42.648;23.406;2023-07-30T07:00:25;99667.34;;;23.42;91.66
6349;BME280;3207;42.648;23.406;2023-07-30T07:02:53;99656.41;;;23.10;91.97
6349;BME280;3207;42.648;23.406;2023-07-30T07:05:20;99672.97;;;22.99;93.29
6349;BME280;3207;42.648;23.406;2023-07-30T07:07:47;99693.88;;;22.89;94.73
6349;BME280;3207;42.648;23.406;2023-07-30T07:10:14;99702.09;;;22.94;95.16
6349;BME280;3207;42.648;23.406;2023-07-30T07:12:41;99696.31;;;22.84;95.95
6349;BME280;3207;42.648;23.406;2023-07-30T07:15:07;99685.66;;;22.84;96.22
6349;BME280;3207;42.648;23.406;2023-07-30T07:17:34;99686.25;;;22.79;96.62
6349;BME280;3207;42.648;23.406;2023-07-30T07:20:03;99677.66;;;22.84;97.07
6349;BME280;3207;42.648;23.406;2023-07-30T07:22:32;99682.75;;;22.79;97.25
6349;BME280;3207;42.648;23.406;2023-07-30T07:24:59;99703.66;;;22.75;97.74
6349;BME280;3207;42.648;23.406;2023-07-30T07:27:25;99693.41;;;22.79;97.98
6349;BME280;3207;42.648;23.406;2023-07-30T07:29:52;99686.75;;;22.96;97.79
6349;BME280;3207;42.648;23.406;2023-07-30T07:32:19;99675.25;;;22.95;96.37
6349;BME280;3207;42.648;23.406;2023-07-30T07:34:46;99676.50;;;23.06;96.50
6349;BME280;3207;42.648;23.406;2023-07-30T07:37:21;99672.44;;;23.23;96.32
6349;BME280;3207;42.648;23.406;2023-07-30T07:39:48;99680.69;;;23.35;95.82
6349;BME280;3207;42.648;23.406;2023-07-30T07:42:14;99677.00;;;23.43;95.42
6349;BME280;3207;42.648;23.406;2023-07-30T07:44:41;99665.97;;;23.52;94.53
6349;BME280;3207;42.648;23.406;2023-07-30T07:47:11;99663.31;;;23.59;94.23
6349;BME280;3207;42.648;23.406;2023-07-30T07:49:38;99653.06;;;23.82;92.73
6349;BME280;3207;42.648;23.406;2023-07-30T07:52:05;99651.59;;;23.86;91.78
6349;BME280;3207;42.648;23.406;2023-07-30T07:54:33;99646.88;;;24.01;91.87
6349;BME280;3207;42.648;23.406;2023-07-30T07:57:00;99644.84;;;24.03;91.58
6349;BME280;3207;42.648;23.406;2023-07-30T07:59:27;99634.97;;;23.91;90.86
6349;BME280;3207;42.648;23.406;2023-07-30T08:01:54;99634.97;;;23.91;91.67
6349;BME280;3207;42.648;23.406;2023-07-30T08:04:20;99648.72;;;23.94;92.50
6349;BME280;3207;42.648;23.406;2023-07-30T08:06:47;99661.88;;;23.96;91.60
6349;BME280;3207;42.648;23.406;2023-07-30T08:09:14;99675.19;;;24.16;91.89
6349;BME280;3207;42.648;23.406;2023-07-30T08:11:43;99685.91;;;24.42;91.02
6349;BME280;3207;42.648;23.406;2023-07-30T08:14:09;99703.09;;;24.72;89.17
6349;BME280;3207;42.648;23.406;2023-07-30T08:16:36;99716.81;;;24.96;87.13
6349;BME280;3207;42.648;23.406;2023-07-30T08:19:03;99715.50;;;25.18;86.36
6349;BME280;3207;42.648;23.406;2023-07-30T08:21:30;99721.06;;;25.16;85.82
6349;BME280;3207;42.648;23.406;2023-07-30T08:23:56;99718.53;;;25.22;85.17
6349;BME280;3207;42.648;23.406;2023-07-30T08:26:23;99732.69;;;25.35;84.60
6349;BME280;3207;42.648;23.406;2023-07-30T08:28:52;99729.06;;;25.54;84.34
6349;BME280;3207;42.648;23.406;2023-07-30T08:31:18;99744.41;;;25.79;82.82
6349;BME280;3207;42.648;23.406;2023-07-30T08:33:45;99753.94;;;26.00;81.38
6349;BME280;3207;42.648;23.406;2023-07-30T08:36:12;99749.41;;;26.25;79.67
6349;BME280;3207;42.648;23.406;2023-07-30T08:38:39;99759.16;;;26.44;78.80
6349;BME280;3207;42.648;23.406;2023-07-30T08:41:05;99758.25;;;26.50;79.19
6349;BME280;3207;42.648;23.406;2023-07-30T08:43:32;99762.59;;;26.51;78.42
6349;BME280;3207;42.648;23.406;2023-07-30T08:46:01;99759.69;;;26.53;77.83
6349;BME280;3207;42.648;23.406;2023-07-30T08:48:28;99761.94;;;26.56;76.78
6349;BME280;3207;42.648;23.406;2023-07-30T08:50:57;99766.88;;;26.59;77.11
6349;BME280;3207;42.648;23.406;2023-07-30T08:53:24;99755.75;;;26.55;77.26
6349;BME280;3207;42.648;23.406;2023-07-30T08:55:52;99768.88;;;26.64;77.30
6349;BME280;3207;42.648;23.406;2023-07-30T08:58:20;99768.88;;;26.64;76.39
6349;BME280;3207;42.648;23.406;2023-07-30T09:00:49;99783.09;;;26.64;76.05
6349;BME280;3207;42.648;23.406;2023-07-30T09:03:18;99777.63;;;26.52;76.21
6349;BME280;3207;42.648;23.406;2023-07-30T09:05:46;99769.50;;;26.41;76.83
6349;BME280;3207;42.648;23.406;2023-07-30T09:08:14;99771.00;;;26.37;76.85
6349;BME280;3207;42.648;23.406;2023-07-30T09:10:41;99773.88;;;26.35;76.60
6349;BME280;3207;42.648;23.406;2023-07-30T09:13:08;99772.25;;;26.34;77.48
6349;BME280;3207;42.648;23.406;2023-07-30T09:15:36;99765.47;;;26.32;77.45
6349;BME280;3207;42.648;23.406;2023-07-30T09:18:03;99771.56;;;26.39;77.25
6349;BME280;3207;42.648;23.406;2023-07-30T09:20:38;99769.19;;;26.49;76.49
6349;BME280;3207;42.648;23.406;2023-07-30T09:23:05;99762.28;;;26.59;76.13
6349;BME280;3207;42.648;23.406;2023-07-30T09:25:32;99775.22;;;26.69;75.44
6349;BME280;3207;42.648;23.406;2023-07-30T09:27:59;99766.28;;;26.75;75.31
6349;BME280;3207;42.648;23.406;2023-07-30T09:30:26;99769.22;;;26.92;74.87
6349;BME280;3207;42.648;23.406;2023-07-30T09:32:55;99758.94;;;27.07;74.24
6349;BME280;3207;42.648;23.406;2023-07-30T09:35:26;99764.44;;;27.30;73.36
6349;BME280;3207;42.648;23.406;2023-07-30T09:37:59;99753.78;;;27.54;72.31
6349;BME280;3207;42.648;23.406;2023-07-30T09:40:31;99762.44;;;27.86;70.80
6349;BME280;3207;42.648;23.406;2023-07-30T09:42:59;99765.75;;;28.11;69.62
6349;BME280;3207;42.648;23.406;2023-07-30T09:45:26;99766.63;;;28.35;68.20
6349;BME280;3207;42.648;23.406;2023-07-30T09:47:54;99763.00;;;28.53;66.78
6349;BME280;3207;42.648;23.406;2023-07-30T09:50:21;99756.69;;;28.59;66.00
6349;BME280;3207;42.648;23.406;2023-07-30T09:52:49;99755.38;;;28.61;65.15
6349;BME280;3207;42.648;23.406;2023-07-30T09:55:17;99754.81;;;28.71;65.48
6349;BME280;3207;42.648;23.406;2023-07-30T09:57:45;99751.25;;;29.05;63.96
6349;BME280;3207;42.648;23.406;2023-07-30T10:00:12;99741.03;;;29.19;63.82
6349;BME280;3207;42.648;23.406;2023-07-30T10:02:41;99749.50;;;29.51;62.62
6349;BME280;3207;42.648;23.406;2023-07-30T10:05:10;99742.25;;;29.97;60.35
6349;BME280;3207;42.648;23.406;2023-07-30T10:07:44;99748.44;;;30.31;59.09
6349;BME280;3207;42.648;23.406;2023-07-30T10:10:12;99751.31;;;30.58;57.50
6349;BME280;3207;42.648;23.406;2023-07-30T10:12:41;99749.06;;;30.71;57.37
6349;BME280;3207;42.648;23.406;2023-07-30T10:15:10;99744.53;;;30.77;56.92
6349;BME280;3207;42.648;23.406;2023-07-30T10:17:36;99738.94;;;30.45;56.29
6349;BME280;3207;42.648;23.406;2023-07-30T10:20:23;99737.53;;;30.42;56.74
6349;BME280;3207;42.648;23.406;2023-07-30T10:22:54;99739.25;;;30.48;57.21
6349;BME280;3207;42.648;23.406;2023-07-30T10:25:22;99742.72;;;30.61;56.64
6349;BME280;3207;42.648;23.406;2023-07-30T10:27:51;99744.41;;;30.67;56.17
6349;BME280;3207;42.648;23.406;2023-07-30T10:30:19;99736.97;;;30.57;55.77
6349;BME280;3207;42.648;23.406;2023-07-30T10:33:01;99746.78;;;30.63;56.14
6349;BME280;3207;42.648;23.406;2023-07-30T10:35:41;99737.38;;;30.66;56.01
6349;BME280;3207;42.648;23.406;2023-07-30T10:38:13;99740.41;;;30.91;55.62
6349;BME280;3207;42.648;23.406;2023-07-30T10:40:40;99740.13;;;31.09;55.10
6349;BME280;3207;42.648;23.406;2023-07-30T10:43:15;99750.22;;;31.19;55.04
6349;BME280;3207;42.648;23.406;2023-07-30T10:45:50;99741.91;;;30.60;55.63
6349;BME280;3207;42.648;23.406;2023-07-30T10:48:17;99740.91;;;30.33;57.07
6349;BME280;3207;42.648;23.406;2023-07-30T10:50:44;99746.97;;;30.40;56.87
6349;BME280;3207;42.648;23.406;2023-07-30T10:53:18;99737.47;;;30.54;55.77
6349;BME280;3207;42.648;23.406;2023-07-30T10:55:45;99737.69;;;30.69;55.16
6349;BME280;3207;42.648;23.406;2023-07-30T10:58:13;99732.88;;;30.71;54.43
6349;BME280;3207;42.648;23.406;2023-07-30T11:00:41;99730.16;;;30.71;55.16
6349;BME280;3207;42.648;23.406;2023-07-30T11:03:08;99739.75;;;31.06;54.68
6349;BME280;3207;42.648;23.406;2023-07-30T11:05:38;99731.06;;;31.20;52.45
6349;BME280;3207;42.648;23.406;2023-07-30T11:08:04;99731.97;;;31.58;52.27
6349;BME280;3207;42.648;23.406;2023-07-30T11:10:31;99727.50;;;31.95;51.41
6349;BME280;3207;42.648;23.406;2023-07-30T11:12:59;99730.19;;;32.27;50.86
6349;BME280;3207;42.648;23.406;2023-07-30T11:15:26;99728.94;;;32.40;50.29
6349;BME280;3207;42.648;23.406;2023-07-30T11:17:58;99725.53;;;32.18;49.35
6349;BME280;3207;42.648;23.406;2023-07-30T11:20:25;99729.13;;;31.96;50.36
6349;BME280;3207;42.648;23.406;2023-07-30T11:22:52;99728.63;;;31.99;50.44
6349;BME280;3207;42.648;23.406;2023-07-30T11:25:19;99722.13;;;32.00;50.13
6349;BME280;3207;42.648;23.406;2023-07-30T11:27:46;99718.09;;;32.03;49.71
6349;BME280;3207;42.648;23.406;2023-07-30T11:30:13;99709.56;;;31.84;50.16
6349;BME280;3207;42.648;23.406;2023-07-30T11:32:41;99710.72;;;31.93;50.99
6349;BME280;3207;42.648;23.406;2023-07-30T11:35:09;99695.41;;;32.09;51.37
6349;BME280;3207;42.648;23.406;2023-07-30T11:37:38;99717.44;;;32.23;51.01
6349;BME280;3207;42.648;23.406;2023-07-30T11:40:07;99702.31;;;32.27;50.15
6349;BME280;3207;42.648;23.406;2023-07-30T11:42:34;99706.09;;;32.26;49.94
6349;BME280;3207;42.648;23.406;2023-07-30T11:45:19;99716.38;;;32.24;49.64
6349;BME280;3207;42.648;23.406;2023-07-30T11:47:46;99705.59;;;31.97;50.04
6349;BME280;3207;42.648;23.406;2023-07-30T11:50:15;99703.59;;;31.82;50.54
6349;BME280;3207;42.648;23.406;2023-07-30T11:52:52;99694.56;;;31.72;51.22
6349;BME280;3207;42.648;23.406;2023-07-30T11:55:19;99692.69;;;31.72;51.48
6349;BME280;3207;42.648;23.406;2023-07-30T11:57:47;99690.03;;;31.77;51.07
6349;BME280;3207;42.648;23.406;2023-07-30T12:00:14;99691.69;;;31.83;51.06
6349;BME280;3207;42.648;23.406;2023-07-30T12:02:41;99687.91;;;31.84;51.32
6349;BME280;3207;42.648;23.406;2023-07-30T12:05:10;99679.63;;;31.96;51.02
6349;BME280;3207;42.648;23.406;2023-07-30T12:07:40;99688.41;;;32.13;50.33
6349;BME280;3207;42.648;23.406;2023-07-30T12:10:09;99684.47;;;32.26;50.38
6349;BME280;3207;42.648;23.406;2023-07-30T12:12:36;99668.78;;;32.33;49.80
6349;BME280;3207;42.648;23.406;2023-07-30T12:15:10;99674.25;;;32.43;49.22
6349;BME280;3207;42.648;23.406;2023-07-30T12:17:37;99672.94;;;32.46;48.68
6349;BME280;3207;42.648;23.406;2023-07-30T12:20:05;99673.75;;;32.46;49.11
6349;BME280;3207;42.648;23.406;2023-07-30T12:22:33;99667.28;;;32.52;49.23
6349;BME280;3207;42.648;23.406;2023-07-30T12:25:02;99669.50;;;32.65;48.83
6349;BME280;3207;42.648;23.406;2023-07-30T12:27:42;99663.63;;;32.74;48.15
6349;BME280;3207;42.648;23.406;2023-07-30T12:30:09;99667.06;;;32.69;48.64
6349;BME280;3207;42.648;23.406;2023-07-30T12:32:36;99658.72;;;32.76;48.90
6349;BME280;3207;42.648;23.406;2023-07-30T12:35:03;99659.81;;;32.75;47.96
6349;BME280;3207;42.648;23.406;2023-07-30T12:37:30;99651.97;;;32.78;47.67
6349;BME280;3207;42.648;23.406;2023-07-30T12:39:58;99653.50;;;32.59;47.41
6349;BME280;3207;42.648;23.406;2023-07-30T12:42:26;99646.50;;;32.63;47.90
6349;BME280;3207;42.648;23.406;2023-07-30T12:44:53;99641.97;;;32.74;48.52
6349;BME280;3207;42.648;23.406;2023-07-30T12:47:19;99636.84;;;32.87;48.38
6349;BME280;3207;42.648;23.406;2023-07-30T12:49:46;99636.59;;;32.94;47.52
6349;BME280;3207;42.648;23.406;2023-07-30T12:52:13;99639.59;;;33.02;47.08
6349;BME280;3207;42.648;23.406;2023-07-30T12:54:40;99632.28;;;33.08;47.19
6349;BME280;3207;42.648;23.406;2023-07-30T12:57:07;99637.16;;;33.01;47.03
6349;BME280;3207;42.648;23.406;2023-07-30T12:59:35;99637.69;;;32.98;47.13
6349;BME280;3207;42.648;23.406;2023-07-30T13:02:02;99641.69;;;32.80;46.57
6349;BME280;3207;42.648;23.406;2023-07-30T13:04:29;99640.41;;;32.35;47.81
6349;BME280;3207;42.648;23.406;2023-07-30T13:06:59;99636.81;;;32.25;48.14
6349;BME280;3207;42.648;23.406;2023-07-30T13:09:28;99632.41;;;32.14;48.65
6349;BME280;3207;42.648;23.406;2023-07-30T13:11:55;99628.88;;;32.13;49.04